Time;durP1;ratioP1;P1;durP2;ratioP2;P2;SDS_P1;SDS_P2;PMS_P1;PMS_P2;Temp;Humidity;BMP_temperature;BMP_pressure;BME280_temperature;BME280_humidity;BME280_pressure;Samples;Min_cycle;Max_cycle;Signal;HPM_P1;HPM_P2
2022/03/10 00:01:13;;;;;;;29.50;19.13;;;;;;;5.46;56.17;102220.84;5260718;28;20031;-74
2022/03/10 00:03:44;;;;;;;27.45;18.88;;;;;;;5.52;56.55;102220.56;5262704;28;20096;-74
2022/03/10 00:06:16;;;;;;;30.85;19.27;;;;;;;5.55;56.86;102228.25;5245086;28;20849;-73
2022/03/10 00:08:47;;;;;;;28.90;19.42;;;;;;;5.55;56.66;102222.19;5262661;28;20112;-73
2022/03/10 00:11:18;;;;;;;28.52;18.40;;;;;;;5.57;56.32;102233.41;5265688;28;20535;-75
2022/03/10 00:13:50;;;;;;;29.63;18.38;;;;;;;5.64;55.98;102224.41;5264028;28;20044;-73
2022/03/10 00:16:22;;;;;;;28.98;18.67;;;;;;;5.55;56.80;102232.59;5244066;28;20063;-73
2022/03/10 00:18:53;;;;;;;26.45;18.48;;;;;;;5.51;58.44;102225.84;5263775;28;20025;-74
2022/03/10 00:21:25;;;;;;;29.38;19.40;;;;;;;5.51;57.53;102231.88;5264221;28;20028;-72
2022/03/10 00:23:56;;;;;;;28.85;18.88;;;;;;;5.45;59.64;102233.88;5263108;28;20311;-74
2022/03/10 00:26:27;;;;;;;28.02;19.52;;;;;;;5.44;57.43;102229.59;5261836;28;20388;-73
2022/03/10 00:28:58;;;;;;;28.08;19.05;;;;;;;5.41;56.93;102229.72;5263103;28;20025;-73
2022/03/10 00:31:30;;;;;;;31.30;18.98;;;;;;;5.19;57.53;102224.53;5265491;28;20029;-75
2022/03/10 00:34:02;;;;;;;29.00;19.83;;;;;;;5.22;57.27;102222.66;5264073;28;20025;-74
2022/03/10 00:36:33;;;;;;;29.08;19.65;;;;;;;5.17;59.24;102224.59;5261052;28;20020;-74
2022/03/10 00:39:05;;;;;;;28.95;19.27;;;;;;;5.12;57.77;102232.59;5264494;28;20039;-73
2022/03/10 00:41:36;;;;;;;32.50;19.60;;;;;;;4.98;58.47;102221.91;5265348;28;20397;-75
2022/03/10 00:44:08;;;;;;;26.55;18.98;;;;;;;4.98;58.61;102229.69;5261406;28;20032;-73
2022/03/10 00:46:39;;;;;;;29.48;19.10;;;;;;;4.95;59.56;102231.56;5248126;28;20374;-73
2022/03/10 00:49:10;;;;;;;29.30;19.27;;;;;;;4.86;59.06;102231.00;5264988;28;20102;-73
2022/03/10 00:51:41;;;;;;;30.42;19.33;;;;;;;4.83;60.43;102232.88;5245657;28;20028;-73
2022/03/10 00:54:13;;;;;;;29.52;19.08;;;;;;;4.79;59.39;102228.72;5253631;28;20045;-73
2022/03/10 00:56:44;;;;;;;29.05;19.05;;;;;;;4.82;59.81;102229.44;5261825;28;20021;-74
2022/03/10 00:59:15;;;;;;;28.08;17.95;;;;;;;4.82;59.99;102236.38;5263885;28;20017;-74
2022/03/10 01:01:46;;;;;;;32.92;19.92;;;;;;;4.95;60.05;102232.41;5263204;28;20027;-73
2022/03/10 01:04:18;;;;;;;34.60;19.88;;;;;;;4.80;59.69;102236.44;5267982;28;20027;-73
2022/03/10 01:06:49;;;;;;;29.33;20.10;;;;;;;4.86;60.08;102235.38;5264407;28;20118;-73
2022/03/10 01:09:20;;;;;;;29.02;20.38;;;;;;;4.78;60.34;102230.47;5268701;28;20016;-75
2022/03/10 01:11:52;;;;;;;28.40;19.48;;;;;;;4.77;61.17;102235.69;5267701;28;20016;-73
2022/03/10 01:14:23;;;;;;;27.23;18.92;;;;;;;4.71;60.77;102230.75;5267224;28;20033;-73
2022/03/10 01:16:56;;;;;;;27.00;18.75;;;;;;;4.67;61.68;102234.38;5265887;28;20055;-73
2022/03/10 01:19:28;;;;;;;28.23;18.95;;;;;;;4.63;62.40;102244.88;5266635;28;20090;-73
2022/03/10 01:21:59;;;;;;;28.23;19.33;;;;;;;4.68;62.12;102239.50;5267000;28;20371;-75
2022/03/10 01:24:30;;;;;;;31.13;20.55;;;;;;;4.68;62.27;102230.88;5267017;28;20044;-72
2022/03/10 01:27:01;;;;;;;31.25;19.00;;;;;;;4.71;61.46;102223.81;5265921;28;20023;-72
2022/03/10 01:29:33;;;;;;;29.15;19.70;;;;;;;4.75;62.22;102225.38;5266711;28;20028;-73
2022/03/10 01:32:05;;;;;;;31.40;19.45;;;;;;;4.66;62.27;102230.94;5268017;28;20410;-73
2022/03/10 01:34:36;;;;;;;29.88;19.73;;;;;;;4.59;63.06;102229.47;5268185;28;20051;-73
2022/03/10 01:37:07;;;;;;;27.85;19.23;;;;;;;4.55;62.32;102233.94;5266667;28;20021;-74
2022/03/10 01:39:38;;;;;;;27.27;19.10;;;;;;;4.57;62.28;102237.31;5266273;28;20033;-73
2022/03/10 01:42:10;;;;;;;28.73;19.00;;;;;;;4.64;62.77;102233.56;5264968;28;20123;-76
2022/03/10 01:44:41;;;;;;;33.05;20.33;;;;;;;4.64;63.16;102232.72;5249396;28;20032;-72
2022/03/10 01:47:12;;;;;;;28.95;19.35;;;;;;;4.61;62.54;102225.06;5267414;28;20029;-73
2022/03/10 01:49:44;;;;;;;30.38;20.10;;;;;;;4.55;62.51;102226.16;5268797;28;20194;-73
2022/03/10 01:52:15;;;;;;;31.15;21.15;;;;;;;4.52;63.38;102228.00;5268256;28;20032;-73
2022/03/10 01:54:47;;;;;;;33.75;20.75;;;;;;;4.46;62.67;102226.47;5282405;22;20107;-73
2022/03/10 01:57:19;;;;;;;34.08;20.85;;;;;;;4.37;63.46;102219.03;5270266;28;20253;-73
2022/03/10 01:59:51;;;;;;;31.67;20.20;;;;;;;4.29;64.42;102229.69;5276731;28;20044;-73
2022/03/10 02:02:23;;;;;;;33.05;20.95;;;;;;;4.22;64.49;102217.84;5278028;28;20461;-73
2022/03/10 02:04:55;;;;;;;31.52;20.77;;;;;;;4.19;64.83;102222.28;5271128;28;20021;-73
2022/03/10 02:10:19;;;;;;;33.13;20.38;;;;;;;4.09;65.05;102207.06;5266626;28;20043;-73
2022/03/10 02:12:52;;;;;;;29.50;20.52;;;;;;;4.14;65.13;102223.31;5266829;28;20074;-73
2022/03/10 02:18:17;;;;;;;28.58;19.85;;;;;;;4.14;65.69;102215.53;5264798;28;20029;-73
2022/03/10 02:20:49;;;;;;;27.58;19.38;;;;;;;4.08;65.21;102218.31;5266149;28;20079;-74
2022/03/10 02:23:20;;;;;;;31.38;20.67;;;;;;;4.03;65.22;102211.63;5266760;28;20106;-75
2022/03/10 02:25:51;;;;;;;27.38;20.13;;;;;;;3.87;66.73;102222.53;5265971;28;20512;-73
2022/03/10 02:28:25;;;;;;;30.42;19.83;;;;;;;3.94;66.27;102210.22;5264945;28;20028;-73
2022/03/10 02:30:56;;;;;;;28.42;19.25;;;;;;;3.79;65.75;102213.31;5264797;28;20074;-73
2022/03/10 02:33:28;;;;;;;29.77;20.17;;;;;;;3.81;66.94;102221.91;5264110;28;20058;-73
2022/03/10 02:35:59;;;;;;;30.65;21.02;;;;;;;3.75;67.48;102214.31;5268216;28;20078;-73
2022/03/10 02:38:31;;;;;;;31.70;19.88;;;;;;;3.72;68.04;102211.84;5262257;28;20148;-73
2022/03/10 02:41:02;;;;;;;31.70;20.45;;;;;;;3.63;66.53;102206.06;5264468;28;20127;-73
2022/03/10 02:43:34;;;;;;;30.33;20.50;;;;;;;3.56;67.79;102207.19;5266500;28;20108;-73
2022/03/10 02:46:05;;;;;;;32.33;22.00;;;;;;;3.62;68.53;102219.94;5265403;28;20029;-73
2022/03/10 02:48:36;;;;;;;26.90;19.42;;;;;;;3.61;68.10;102218.25;5267344;28;20009;-73
2022/03/10 02:51:08;;;;;;;27.92;19.80;;;;;;;3.56;68.46;102222.75;5267343;28;20518;-73
2022/03/10 02:53:39;;;;;;;29.55;20.77;;;;;;;3.55;69.24;102221.03;5267468;28;20109;-75
2022/03/10 02:56:10;;;;;;;29.73;20.42;;;;;;;3.48;68.51;102222.13;5286736;28;20728;-73
2022/03/10 02:58:41;;;;;;;31.15;20.73;;;;;;;3.45;69.66;102219.66;5284887;28;20408;-73
2022/03/10 03:01:13;;;;;;;30.63;20.10;;;;;;;3.38;68.81;102213.81;5283274;28;20603;-73
2022/03/10 03:03:44;;;;;;;31.65;21.05;;;;;;;3.44;69.23;102210.16;5287544;28;20024;-73
2022/03/10 03:06:15;;;;;;;27.20;19.50;;;;;;;3.36;69.16;102223.38;5284399;28;20024;-73
2022/03/10 03:08:48;;;;;;;30.48;20.65;;;;;;;3.30;69.59;102218.41;5284943;28;20107;-73
2022/03/10 03:11:19;;;;;;;28.05;19.52;;;;;;;3.34;69.62;102216.56;5285411;28;20675;-73
2022/03/10 03:13:51;;;;;;;30.80;20.63;;;;;;;3.32;69.59;102208.84;5288908;28;20314;-73
2022/03/10 03:16:24;;;;;;;32.25;21.23;;;;;;;3.26;70.05;102214.22;5287169;28;20035;-73
2022/03/10 03:18:56;;;;;;;32.42;20.90;;;;;;;3.30;69.63;102220.16;5284228;28;20028;-73
2022/03/10 03:21:27;;;;;;;30.95;20.15;;;;;;;3.28;69.85;102224.53;5277245;28;20473;-73
2022/03/10 03:23:59;;;;;;;30.52;21.02;;;;;;;3.26;69.75;102226.31;5287003;28;20023;-73
2022/03/10 03:26:30;;;;;;;31.38;21.08;;;;;;;3.22;69.50;102228.19;5284774;28;20074;-73
2022/03/10 03:29:01;;;;;;;31.90;21.27;;;;;;;3.22;70.21;102227.31;5284998;28;20024;-73
2022/03/10 03:31:33;;;;;;;27.58;20.45;;;;;;;3.27;70.89;102234.03;5286226;28;20046;-73
2022/03/10 03:34:10;;;;;;;28.38;20.27;;;;;;;3.07;71.36;102219.16;5283348;28;20036;-73
2022/03/10 03:36:43;;;;;;;34.65;21.60;;;;;;;3.19;71.91;102236.03;5285789;28;20067;-73
2022/03/10 03:39:14;;;;;;;;;;;;;;;3.73;68.68;102234.28;5284669;28;20032;-73
2022/03/10 03:41:46;;;;;;;36.10;20.65;;;;;;;3.20;70.87;102237.72;5286568;28;20475;-73
2022/03/10 03:44:17;;;;;;;32.13;21.42;;;;;;;3.15;71.59;102231.84;5266678;28;20123;-73
2022/03/10 03:46:48;;;;;;;32.58;21.08;;;;;;;3.11;72.26;102219.91;5288650;28;20103;-75
2022/03/10 03:49:20;;;;;;;33.47;22.10;;;;;;;3.14;72.31;102235.31;5268321;28;20473;-75
2022/03/10 03:51:51;;;;;;;31.95;20.98;;;;;;;3.09;72.26;102238.06;5282068;28;20032;-73
2022/03/10 03:54:24;;;;;;;30.63;20.55;;;;;;;3.03;72.33;102239.97;5285821;28;20041;-73
2022/03/10 03:56:55;;;;;;;29.33;20.98;;;;;;;3.04;71.14;102245.13;5286526;28;20035;-73
2022/03/10 03:59:27;;;;;;;28.48;20.10;;;;;;;2.97;71.62;102251.38;5284824;28;20029;-73
2022/03/10 04:01:58;;;;;;;27.70;20.52;;;;;;;2.98;71.35;102250.47;5286820;28;20028;-73
2022/03/10 04:04:30;;;;;;;29.80;20.15;;;;;;;2.94;71.90;102251.47;5287307;28;20106;-73
2022/03/10 04:07:01;;;;;;;30.02;20.35;;;;;;;2.93;71.52;102254.97;5286974;28;20499;-73
2022/03/10 04:09:32;;;;;;;31.58;21.15;;;;;;;2.86;71.40;102256.03;5281698;28;20036;-73
2022/03/10 04:12:04;;;;;;;28.88;20.17;;;;;;;2.84;72.30;102253.50;5268143;28;20015;-75
2022/03/10 04:14:35;;;;;;;30.45;19.63;;;;;;;2.84;71.54;102265.56;5285863;28;20484;-73
2022/03/10 04:17:07;;;;;;;33.80;21.27;;;;;;;2.76;71.46;102268.38;5283381;28;20056;-73
2022/03/10 04:19:38;;;;;;;28.05;19.73;;;;;;;2.76;71.11;102262.38;5285412;28;20071;-73
2022/03/10 04:22:09;;;;;;;30.58;20.27;;;;;;;2.72;72.34;102258.19;5286360;28;20081;-73
2022/03/10 04:24:41;;;;;;;28.92;20.08;;;;;;;2.68;71.37;102258.25;5285009;28;20700;-73
2022/03/10 04:27:12;;;;;;;30.35;20.15;;;;;;;2.61;71.87;102267.13;5285866;28;20012;-73
2022/03/10 04:29:44;;;;;;;29.45;20.40;;;;;;;2.63;73.30;102262.72;5286399;28;20016;-73
2022/03/10 04:32:15;;;;;;;31.13;20.65;;;;;;;2.64;73.05;102266.16;5267041;28;20601;-73
2022/03/10 04:34:47;;;;;;;30.70;20.23;;;;;;;2.52;72.18;102256.16;5285144;28;20030;-75
2022/03/10 04:37:18;;;;;;;31.02;20.17;;;;;;;2.52;73.40;102267.38;5285581;28;20024;-75
2022/03/10 04:39:50;;;;;;;29.15;19.83;;;;;;;2.58;73.71;102262.03;5285203;28;20035;-73
2022/03/10 04:42:21;;;;;;;30.67;20.83;;;;;;;2.48;74.07;102260.59;5283980;28;20386;-73
2022/03/10 04:44:52;;;;;;;32.20;21.15;;;;;;;2.45;74.16;102255.50;5283823;28;20036;-73
2022/03/10 04:47:24;;;;;;;29.77;21.00;;;;;;;2.42;74.19;102253.84;5285224;28;20108;-73
2022/03/10 04:49:56;;;;;;;29.30;21.08;;;;;;;2.44;75.06;102261.56;5283403;28;20020;-73
2022/03/10 04:52:28;;;;;;;30.77;21.13;;;;;;;2.35;75.31;102254.91;5285580;28;20028;-73
2022/03/10 04:55:00;;;;;;;34.35;20.77;;;;;;;2.29;75.77;102268.00;5284112;28;20044;-73
2022/03/10 04:57:32;;;;;;;30.15;20.85;;;;;;;2.23;75.44;102254.38;5285437;28;20044;-73
2022/03/10 05:00:08;;;;;;;32.90;21.50;;;;;;;2.25;74.74;102257.78;5284473;28;20127;-75
2022/03/10 05:02:40;;;;;;;30.17;20.25;;;;;;;2.24;74.65;102258.69;5265692;28;20028;-75
2022/03/10 05:05:15;;;;;;;31.80;20.33;;;;;;;2.13;74.98;102246.06;5284280;28;20067;-75
2022/03/10 05:07:46;;;;;;;31.08;20.92;;;;;;;2.17;74.91;102253.69;5282123;28;20074;-73
2022/03/10 05:10:18;;;;;;;32.63;20.77;;;;;;;2.26;75.04;102255.16;5281395;28;20066;-73
2022/03/10 05:12:52;;;;;;;29.52;20.33;;;;;;;2.23;74.56;102264.72;5282172;28;20032;-73
2022/03/10 05:15:24;;;;;;;31.95;21.00;;;;;;;2.22;74.44;102260.47;5284330;28;20042;-73
2022/03/10 05:17:55;;;;;;;32.20;19.77;;;;;;;2.16;74.85;102264.06;5286084;28;20021;-73
2022/03/10 05:20:27;;;;;;;30.85;20.77;;;;;;;2.15;74.59;102264.94;5284897;28;20027;-73
2022/03/10 05:23:02;;;;;;;30.95;20.23;;;;;;;2.22;75.16;102268.22;5284287;28;20469;-73
2022/03/10 05:25:38;;;;;;;32.28;19.98;;;;;;;2.16;74.41;102270.09;5284185;28;20085;-73
2022/03/10 05:28:14;;;;;;;28.75;20.08;;;;;;;2.07;75.46;102272.91;5283955;28;20034;-73
2022/03/10 05:30:47;;;;;;;27.63;20.25;;;;;;;2.01;74.92;102274.78;5285154;28;20530;-73
2022/03/10 05:33:18;;;;;;;28.77;19.52;;;;;;;1.98;74.40;102272.31;5285366;28;20428;-73
2022/03/10 05:35:49;;;;;;;31.83;20.38;;;;;;;2.01;75.63;102267.03;5285352;28;20028;-73
2022/03/10 05:38:20;;;;;;;33.67;21.20;;;;;;;1.99;75.64;102261.06;5283917;28;20032;-73
2022/03/10 05:40:52;;;;;;;35.45;19.70;;;;;;;1.95;74.54;102268.91;5284862;28;20024;-73
2022/03/10 05:43:24;;;;;;;30.80;19.73;;;;;;;1.87;74.55;102263.09;5283318;28;20524;-73
2022/03/10 05:45:55;;;;;;;30.17;20.58;;;;;;;1.93;75.54;102268.09;5283284;28;20077;-73
2022/03/10 05:48:26;;;;;;;28.52;18.85;;;;;;;1.85;76.34;102262.25;5287102;28;20020;-73
2022/03/10 05:50:58;;;;;;;33.40;21.05;;;;;;;1.87;77.18;102267.41;5288058;28;20077;-73
2022/03/10 05:53:29;;;;;;;28.98;19.70;;;;;;;1.90;77.04;102270.75;5286658;28;20031;-73
2022/03/10 05:56:00;;;;;;;31.77;21.00;;;;;;;1.88;77.06;102267.34;5288733;28;20510;-73
2022/03/10 05:58:32;;;;;;;32.92;19.83;;;;;;;1.72;77.70;102250.56;5271702;28;20524;-73
2022/03/10 06:01:03;;;;;;;34.00;20.90;;;;;;;1.83;76.41;102258.03;5286454;28;20024;-73
2022/03/10 06:03:35;;;;;;;29.30;19.15;;;;;;;1.86;76.03;102265.72;5286302;28;20494;-73
2022/03/10 06:06:06;;;;;;;33.38;21.80;;;;;;;1.92;76.77;102262.97;5289639;28;20024;-73
2022/03/10 06:08:38;;;;;;;30.38;20.75;;;;;;;1.93;77.21;102257.78;5287124;28;20157;-73
2022/03/10 06:11:09;;;;;;;28.98;19.55;;;;;;;1.93;77.44;102262.94;5288694;28;20023;-73
2022/03/10 06:13:41;;;;;;;29.10;19.23;;;;;;;2.00;76.92;102262.75;5288022;28;20028;-73
2022/03/10 06:16:12;;;;;;;29.70;19.90;;;;;;;2.09;76.21;102262.53;5287800;28;20050;-73
2022/03/10 06:18:44;;;;;;;32.42;20.13;;;;;;;2.12;76.41;102265.88;5287463;28;20492;-73
2022/03/10 06:21:15;;;;;;;29.63;19.73;;;;;;;2.12;75.29;102262.44;5287131;28;20516;-73
2022/03/10 06:23:47;;;;;;;32.47;19.88;;;;;;;2.12;75.35;102265.88;5287422;28;20485;-73
2022/03/10 06:26:18;;;;;;;30.38;21.00;;;;;;;2.16;75.41;102272.69;5261905;28;20024;-73
2022/03/10 06:28:49;;;;;;;30.38;19.88;;;;;;;2.12;75.90;102263.31;5285147;28;20572;-73
2022/03/10 06:31:23;;;;;;;34.50;20.70;;;;;;;2.07;75.27;102265.16;5268806;28;20154;-73
2022/03/10 06:33:54;;;;;;;30.52;20.40;;;;;;;2.13;75.84;102267.56;5286129;28;20039;-73
2022/03/10 06:36:26;;;;;;;30.45;20.42;;;;;;;2.20;75.94;102276.03;5286985;28;20039;-73
2022/03/10 06:38:57;;;;;;;30.45;20.02;;;;;;;2.21;75.52;102271.69;5269395;28;20103;-73
2022/03/10 06:41:29;;;;;;;29.30;19.63;;;;;;;2.27;75.44;102272.34;5287577;28;20020;-73
2022/03/10 06:44:00;;;;;;;32.15;20.50;;;;;;;2.35;74.49;102275.59;5287631;28;20020;-73
2022/03/10 06:46:32;;;;;;;30.88;19.90;;;;;;;2.40;74.22;102278.91;5287301;28;20039;-73
2022/03/10 06:49:03;;;;;;;33.08;20.58;;;;;;;2.31;75.01;102263.66;5287237;28;20415;-75
2022/03/10 06:51:35;;;;;;;31.60;20.52;;;;;;;2.42;74.38;102277.13;5267399;28;20016;-75
2022/03/10 06:54:06;;;;;;;32.33;20.77;;;;;;;2.46;75.13;102277.88;5286581;28;20050;-73
2022/03/10 06:56:38;;;;;;;30.55;19.92;;;;;;;2.49;74.42;102284.72;5288104;28;20061;-75
2022/03/10 06:59:10;;;;;;;33.33;21.33;;;;;;;2.52;74.36;102285.47;5282374;28;20231;-73
2022/03/10 07:01:41;;;;;;;34.00;21.45;;;;;;;2.57;74.22;102286.19;5270828;28;20036;-73
2022/03/10 07:04:13;;;;;;;33.88;21.88;;;;;;;2.73;74.02;102290.91;5284792;28;20410;-73
2022/03/10 07:06:44;;;;;;;33.95;20.92;;;;;;;2.80;73.29;102285.53;5287879;28;20029;-74
2022/03/10 07:09:16;;;;;;;34.85;21.35;;;;;;;2.85;73.81;102293.19;5266084;28;20327;-75
2022/03/10 07:11:47;;;;;;;31.65;20.52;;;;;;;2.86;73.84;102292.28;5286420;28;20485;-72
2022/03/10 07:14:18;;;;;;;30.77;20.42;;;;;;;3.01;73.34;102280.63;5285858;28;20381;-73
2022/03/10 07:16:50;;;;;;;33.17;20.88;;;;;;;3.04;73.59;102285.72;5286673;28;20509;-75
2022/03/10 07:19:21;;;;;;;33.40;21.55;;;;;;;3.24;72.53;102293.72;5268956;28;20027;-75
2022/03/10 07:21:53;;;;;;;34.45;22.20;;;;;;;3.35;72.65;102295.97;5286648;28;20020;-72
2022/03/10 07:24:25;;;;;;;32.05;19.85;;;;;;;3.47;71.41;102298.16;5284476;28;20062;-73
2022/03/10 07:26:57;;;;;;;37.20;22.20;;;;;;;3.54;71.86;102291.06;5275551;28;20035;-72
2022/03/10 07:29:28;;;;;;;36.05;21.92;;;;;;;3.62;71.41;102300.25;5270204;28;20032;-73
2022/03/10 07:32:00;;;;;;;33.83;20.88;;;;;;;3.71;70.94;102293.09;5272451;28;20426;-73
2022/03/10 07:34:31;;;;;;;32.78;20.88;;;;;;;3.88;70.61;102291.63;5275521;28;20413;-73
2022/03/10 07:37:03;;;;;;;32.95;21.27;;;;;;;4.00;70.29;102295.56;5264243;28;20086;-73
2022/03/10 07:39:34;;;;;;;31.55;20.65;;;;;;;4.18;69.01;102294.09;5283408;28;20012;-73
2022/03/10 07:42:05;;;;;;;30.10;19.83;;;;;;;4.42;68.17;102297.56;5286111;28;20034;-73
2022/03/10 07:44:37;;;;;;;32.88;20.42;;;;;;;4.53;67.40;102292.81;5284863;28;20139;-73
2022/03/10 07:47:09;;;;;;;33.25;20.33;;;;;;;4.72;66.46;102284.38;5284312;28;20024;-73
2022/03/10 07:49:40;;;;;;;32.15;20.60;;;;;;;4.82;66.81;102290.91;5286908;28;20016;-73
2022/03/10 07:52:11;;;;;;;33.00;21.15;;;;;;;5.02;66.25;102288.41;5286093;28;20076;-73
2022/03/10 07:54:43;;;;;;;31.90;20.52;;;;;;;5.12;65.48;102284.56;5399655;22;20090;-73
2022/03/10 07:57:14;;;;;;;34.03;20.05;;;;;;;5.18;64.97;102278.25;5277708;28;20033;-76
2022/03/10 07:59:45;;;;;;;32.05;20.25;;;;;;;5.36;64.11;102280.13;5265218;28;20020;-72
2022/03/10 08:02:17;;;;;;;34.42;20.65;;;;;;;5.54;63.04;102281.16;5287540;28;20032;-73
2022/03/10 08:04:48;;;;;;;37.53;20.52;;;;;;;5.68;62.53;102282.31;5264627;28;20074;-72
2022/03/10 08:07:19;;;;;;;34.50;20.33;;;;;;;5.77;62.48;102280.19;5284291;28;20027;-73
2022/03/10 08:09:51;;;;;;;32.10;21.48;;;;;;;5.76;62.85;102269.88;5283467;28;20122;-74
2022/03/10 08:12:26;;;;;;;30.40;19.77;;;;;;;5.99;62.05;102285.38;5285957;28;20029;-72
2022/03/10 08:15:00;;;;;;;36.65;19.88;;;;;;;6.16;60.86;102283.81;5284244;28;20028;-72
2022/03/10 08:17:31;;;;;;;31.13;19.85;;;;;;;6.26;60.32;102290.31;5283478;28;20028;-74
2022/03/10 08:20:02;;;;;;;33.22;20.33;;;;;;;6.43;59.57;102290.41;5283073;28;20481;-73
2022/03/10 08:22:34;;;;;;;33.30;20.25;;;;;;;6.51;60.05;102290.06;5262181;28;20464;-76
2022/03/10 08:25:06;;;;;;;32.08;19.48;;;;;;;6.71;57.06;102287.44;5284574;28;20032;-75
2022/03/10 08:27:38;;;;;;;34.83;21.10;;;;;;;6.89;56.94;102290.94;5279585;28;20040;-74
2022/03/10 08:30:13;;;;;;;30.27;18.83;;;;;;;7.05;55.76;102283.28;5278456;28;20024;-74
2022/03/10 08:32:44;;;;;;;35.17;20.50;;;;;;;7.15;55.85;102288.88;5277833;28;20028;-74
2022/03/10 08:35:16;;;;;;;38.38;21.27;;;;;;;7.29;54.51;102284.69;5284916;28;20562;-73
2022/03/10 08:37:47;;;;;;;29.42;19.85;;;;;;;7.51;53.57;102276.69;5284198;28;20471;-72
2022/03/10 08:40:19;;;;;;;30.65;19.38;;;;;;;7.40;54.30;102285.94;5280658;28;20016;-73
2022/03/10 08:42:51;;;;;;;30.77;19.27;;;;;;;7.63;53.25;102282.22;5283275;28;20040;-75
2022/03/10 08:45:26;;;;;;;30.27;19.83;;;;;;;7.75;52.40;102279.84;5286262;28;20032;-73
2022/03/10 08:47:57;;;;;;;36.08;21.85;;;;;;;7.85;52.05;102276.78;5277591;28;20067;-73
2022/03/10 08:50:29;;;;;;;30.83;18.58;;;;;;;7.86;51.71;102271.47;5278829;28;20433;-73
2022/03/10 08:53:00;;;;;;;33.63;19.52;;;;;;;8.16;51.08;102269.06;5275343;28;20029;-72
2022/03/10 08:55:31;;;;;;;26.23;19.13;;;;;;;8.25;51.12;102275.56;5273650;28;20040;-73
2022/03/10 08:58:03;;;;;;;28.10;19.15;;;;;;;8.35;50.33;102257.66;5277063;28;20052;-75
2022/03/10 09:00:34;;;;;;;29.20;19.45;;;;;;;8.53;49.80;102275.00;5275386;28;20037;-72
2022/03/10 09:03:05;;;;;;;30.05;20.58;;;;;;;8.68;49.69;102274.19;5281297;28;20483;-74
2022/03/10 09:05:37;;;;;;;31.85;19.75;;;;;;;8.76;50.18;102276.38;5279719;28;20071;-76
2022/03/10 09:08:09;;;;;;;31.42;19.92;;;;;;;8.92;49.09;102268.53;5282754;28;20485;-73
2022/03/10 09:10:40;;;;;;;29.60;17.85;;;;;;;9.09;48.71;102264.97;5284419;28;20019;-73
2022/03/10 09:13:11;;;;;;;28.80;19.90;;;;;;;9.14;48.74;102253.34;5283535;28;20113;-74
2022/03/10 09:15:45;;;;;;;29.30;19.05;;;;;;;9.33;48.25;102261.00;5281969;28;20462;-73
2022/03/10 09:18:17;;;;;;;27.88;18.55;;;;;;;9.41;47.85;102253.56;5283613;28;20028;-73
2022/03/10 09:20:48;;;;;;;28.35;18.92;;;;;;;9.61;47.07;102246.31;5279680;28;20028;-75
2022/03/10 09:23:19;;;;;;;25.42;18.63;;;;;;;9.68;46.85;102250.25;5285784;28;20498;-73
2022/03/10 09:25:51;;;;;;;30.27;19.15;;;;;;;9.90;46.23;102250.69;5287159;28;20058;-73
2022/03/10 09:28:22;;;;;;;29.15;19.65;;;;;;;10.07;46.11;102254.91;5286156;28;20032;-76
2022/03/10 09:30:53;;;;;;;30.23;18.98;;;;;;;10.18;45.72;102249.03;5283914;28;20412;-73
2022/03/10 09:33:25;;;;;;;29.05;19.65;;;;;;;10.32;46.21;102235.13;5283450;28;20031;-73
2022/03/10 09:35:57;;;;;;;29.38;18.95;;;;;;;10.37;45.90;102244.38;5270720;28;20069;-74
2022/03/10 09:38:28;;;;;;;28.42;18.88;;;;;;;10.52;45.34;102232.09;5285918;28;20465;-73
2022/03/10 09:40:59;;;;;;;28.10;19.08;;;;;;;10.64;45.11;102228.72;5285602;28;20059;-73
2022/03/10 09:43:31;;;;;;;29.80;18.80;;;;;;;10.78;45.10;102227.00;5284195;28;20044;-74
2022/03/10 09:46:04;;;;;;;28.42;18.95;;;;;;;10.90;45.42;102228.84;5288014;28;20035;-73
2022/03/10 09:48:37;;;;;;;32.57;19.67;;;;;;;10.99;45.12;102230.06;5285472;28;20484;-73
2022/03/10 09:51:09;;;;;;;29.38;18.48;;;;;;;11.10;43.98;102228.41;5282351;28;20708;-76
2022/03/10 09:53:44;;;;;;;29.33;19.50;;;;;;;11.30;44.46;102227.09;5281582;28;20055;-73
2022/03/10 09:56:19;;;;;;;28.20;18.92;;;;;;;11.42;44.82;102217.59;5282387;28;20051;-73
2022/03/10 09:58:51;;;;;;;26.75;18.33;;;;;;;11.57;44.59;102221.81;5286948;28;20594;-75
2022/03/10 10:01:22;;;;;;;24.55;18.25;;;;;;;11.70;44.59;102221.81;5286628;28;20024;-73
2022/03/10 10:03:53;;;;;;;26.73;18.73;;;;;;;11.83;43.49;102209.56;5288537;28;20583;-75
2022/03/10 10:06:24;;;;;;;26.75;17.92;;;;;;;11.84;44.17;102215.66;5285247;28;20854;-75
2022/03/10 10:08:57;;;;;;;31.90;19.38;;;;;;;11.99;43.67;102211.16;5287985;28;20461;-73
2022/03/10 10:11:33;;;;;;;30.20;18.92;;;;;;;12.15;43.24;102206.50;5267789;28;20602;-76
2022/03/10 10:14:04;;;;;;;26.75;17.67;;;;;;;12.36;42.61;102210.25;5266022;28;20024;-74
2022/03/10 10:16:47;;;;;;;26.70;18.60;;;;;;;12.52;42.28;102210.00;5287950;28;20024;-76
2022/03/10 10:19:18;;;;;;;25.90;17.60;;;;;;;12.54;42.57;102196.75;5284209;28;20043;-76
2022/03/10 10:22:23;;;;;;;24.73;16.95;;;;;;;12.85;42.88;102196.22;5287190;28;20020;-74
2022/03/10 10:24:59;;;;;;;27.48;17.90;;;;;;;12.82;42.09;102203.50;5282696;28;20052;-74
2022/03/10 10:27:32;;;;;;;27.90;17.63;;;;;;;12.88;41.84;102195.19;5284615;28;20032;-74
2022/03/10 10:30:06;;;;;;;24.33;17.92;;;;;;;13.13;41.42;102194.19;5286033;28;20039;-75
2022/03/10 10:32:55;;;;;;;27.63;18.92;;;;;;;13.33;41.36;102193.59;5289342;28;20465;-75
2022/03/10 10:35:26;;;;;;;25.52;17.17;;;;;;;13.25;41.15;102193.31;5285290;28;20128;-73
2022/03/10 10:38:00;;;;;;;26.55;18.05;;;;;;;13.38;40.67;102191.44;5289654;28;20559;-74
2022/03/10 10:40:33;;;;;;;24.23;17.67;;;;;;;13.59;40.87;102198.66;5282188;28;20066;-75
2022/03/10 10:43:06;;;;;;;;;;;;;;;14.00;39.26;102186.75;5286982;28;20595;-74
2022/03/10 10:45:38;;;;;;;24.58;17.38;;;;;;;13.60;39.91;102189.84;5277837;28;19916;-74
2022/03/10 10:48:12;;;;;;;21.35;16.20;;;;;;;13.71;40.47;102189.81;5284888;28;20077;-75
2022/03/10 10:50:44;;;;;;;22.92;16.23;;;;;;;13.84;40.27;102185.31;5281820;28;20464;-74
2022/03/10 10:53:30;;;;;;;23.95;17.20;;;;;;;13.92;39.35;102181.25;5279101;28;20032;-74
2022/03/10 10:56:02;;;;;;;24.65;17.17;;;;;;;14.03;39.94;102182.06;5284818;28;20040;-75
2022/03/10 10:58:33;;;;;;;23.85;16.83;;;;;;;14.04;39.52;102181.13;5264699;28;20382;-74
2022/03/10 11:01:05;;;;;;;23.10;16.40;;;;;;;14.12;39.39;102186.63;5288775;28;20024;-75
2022/03/10 11:03:37;;;;;;;24.67;17.13;;;;;;;14.36;39.03;102168.03;5286892;28;20466;-75
2022/03/10 11:06:08;;;;;;;24.33;16.65;;;;;;;14.26;38.80;102147.81;5286505;28;20029;-74
2022/03/10 11:08:40;;;;;;;24.33;16.25;;;;;;;14.49;39.88;102165.28;5278340;28;20103;-74
2022/03/10 11:11:11;;;;;;;20.85;16.23;;;;;;;14.50;38.42;102155.56;5284708;28;20330;-74
2022/03/10 11:13:43;;;;;;;23.38;16.58;;;;;;;14.84;38.76;102157.13;5279689;28;20028;-76
2022/03/10 11:16:16;;;;;;;22.15;17.05;;;;;;;14.89;38.14;102171.75;5268435;28;20488;-74
2022/03/10 11:18:52;;;;;;;22.25;16.88;;;;;;;14.80;38.41;102160.16;5281029;28;20381;-74
2022/03/10 11:21:42;;;;;;;20.63;15.95;;;;;;;15.14;38.63;102163.50;5284866;28;20028;-73
2022/03/10 11:24:35;;;;;;;23.95;16.45;;;;;;;15.18;38.64;102167.53;5282815;28;20025;-76
2022/03/10 11:27:12;;;;;;;23.98;17.05;;;;;;;15.12;37.87;102160.16;5276929;28;20883;-74
2022/03/10 11:29:47;;;;;;;24.70;17.13;;;;;;;15.15;37.91;102154.59;5283290;28;20031;-74
2022/03/10 11:32:26;;;;;;;23.73;16.48;;;;;;;15.32;38.32;102161.13;5262608;28;20020;-74
2022/03/10 11:35:00;;;;;;;20.00;15.18;;;;;;;15.30;38.30;102157.75;5279077;28;20058;-75
2022/03/10 11:37:40;;;;;;;22.83;15.88;;;;;;;15.58;38.66;102157.13;5284181;28;20032;-74
2022/03/10 11:40:15;;;;;;;22.42;16.52;;;;;;;15.50;38.29;102146.38;5282012;28;20064;-74
2022/03/10 11:42:59;;;;;;;22.65;16.23;;;;;;;15.67;38.35;102144.94;5284134;28;20016;-77
2022/03/10 11:45:31;;;;;;;22.95;15.93;;;;;;;15.69;38.44;102145.66;5281261;28;20032;-76